sensor_id;sensor_type;location;lat;lon;timestamp;temperature;humidity
75819;DHT22;64453;51.944;9.796;2023-12-14T00:00:12;12.50;57.60
75819;DHT22;64453;51.944;9.796;2023-12-14T00:02:40;12.20;57.80
75819;DHT22;64453;51.944;9.796;2023-12-14T00:05:08;12.40;57.10
75819;DHT22;64453;51.944;9.796;2023-12-14T00:07:35;12.70;58.00
75819;DHT22;64453;51.944;9.796;2023-12-14T00:10:02;12.80;56.50
75819;DHT22;64453;51.944;9.796;2023-12-14T00:12:30;13.10;56.30
75819;DHT22;64453;51.944;9.796;2023-12-14T00:14:57;12.50;56.90
75819;DHT22;64453;51.944;9.796;2023-12-14T00:17:24;12.90;56.40
75819;DHT22;64453;51.944;9.796;2023-12-14T00:19:51;12.60;55.50
75819;DHT22;64453;51.944;9.796;2023-12-14T00:22:19;11.60;58.20
75819;DHT22;64453;51.944;9.796;2023-12-14T00:24:46;12.10;58.30
75819;DHT22;64453;51.944;9.796;2023-12-14T00:27:13;12.50;56.80
75819;DHT22;64453;51.944;9.796;2023-12-14T00:29:40;12.50;56.70
75819;DHT22;64453;51.944;9.796;2023-12-14T00:32:07;12.20;57.00
75819;DHT22;64453;51.944;9.796;2023-12-14T00:34:33;11.50;58.60
75819;DHT22;64453;51.944;9.796;2023-12-14T00:37:00;11.80;58.70
75819;DHT22;64453;51.944;9.796;2023-12-14T00:39:29;11.50;57.80
75819;DHT22;64453;51.944;9.796;2023-12-14T00:41:56;11.50;59.80
75819;DHT22;64453;51.944;9.796;2023-12-14T00:44:22;11.60;59.40
75819;DHT22;64453;51.944;9.796;2023-12-14T00:46:49;12.40;58.00
75819;DHT22;64453;51.944;9.796;2023-12-14T00:49:16;12.00;56.60
75819;DHT22;64453;51.944;9.796;2023-12-14T00:51:43;11.40;58.40
75819;DHT22;64453;51.944;9.796;2023-12-14T00:54:10;11.70;58.20
75819;DHT22;64453;51.944;9.796;2023-12-14T00:56:38;11.50;58.70
75819;DHT22;64453;51.944;9.796;2023-12-14T00:59:05;10.70;58.40
75819;DHT22;64453;51.944;9.796;2023-12-14T01:01:32;11.30;60.10
75819;DHT22;64453;51.944;9.796;2023-12-14T01:03:59;10.40;59.70
75819;DHT22;64453;51.944;9.796;2023-12-14T01:06:26;10.70;59.60
75819;DHT22;64453;51.944;9.796;2023-12-14T01:08:53;10.70;60.00
75819;DHT22;64453;51.944;9.796;2023-12-14T01:11:19;10.20;60.70
75819;DHT22;64453;51.944;9.796;2023-12-14T01:13:48;11.10;59.80
75819;DHT22;64453;51.944;9.796;2023-12-14T01:16:15;10.10;60.70
75819;DHT22;64453;51.944;9.796;2023-12-14T01:18:41;9.90;62.50
75819;DHT22;64453;51.944;9.796;2023-12-14T01:21:08;11.40;60.00
75819;DHT22;64453;51.944;9.796;2023-12-14T01:23:35;10.60;60.60
75819;DHT22;64453;51.944;9.796;2023-12-14T01:26:02;10.40;62.00
75819;DHT22;64453;51.944;9.796;2023-12-14T01:28:29;10.10;60.80
75819;DHT22;64453;51.944;9.796;2023-12-14T01:30:57;10.50;60.70
75819;DHT22;64453;51.944;9.796;2023-12-14T01:33:24;11.30;60.10
75819;DHT22;64453;51.944;9.796;2023-12-14T01:35:51;11.60;58.60
75819;DHT22;64453;51.944;9.796;2023-12-14T01:38:18;11.50;58.30
75819;DHT22;64453;51.944;9.796;2023-12-14T01:40:45;10.90;60.00
75819;DHT22;64453;51.944;9.796;2023-12-14T01:43:12;11.30;59.40
75819;DHT22;64453;51.944;9.796;2023-12-14T01:45:39;11.50;57.80
75819;DHT22;64453;51.944;9.796;2023-12-14T01:48:07;11.40;57.90
75819;DHT22;64453;51.944;9.796;2023-12-14T01:50:34;10.80;58.30
75819;DHT22;64453;51.944;9.796;2023-12-14T01:53:01;11.10;58.50
75819;DHT22;64453;51.944;9.796;2023-12-14T01:55:28;11.90;57.10
75819;DHT22;64453;51.944;9.796;2023-12-14T01:57:55;11.20;55.90
75819;DHT22;64453;51.944;9.796;2023-12-14T02:00:28;11.30;58.80
75819;DHT22;64453;51.944;9.796;2023-12-14T02:02:57;11.80;56.90
75819;DHT22;64453;51.944;9.796;2023-12-14T02:05:25;11.00;58.30
75819;DHT22;64453;51.944;9.796;2023-12-14T02:07:52;11.50;58.10
75819;DHT22;64453;51.944;9.796;2023-12-14T02:10:19;10.40;58.00
75819;DHT22;64453;51.944;9.796;2023-12-14T02:12:46;10.40;59.40
75819;DHT22;64453;51.944;9.796;2023-12-14T02:15:12;10.60;57.30
75819;DHT22;64453;51.944;9.796;2023-12-14T02:17:39;10.00;59.40
75819;DHT22;64453;51.944;9.796;2023-12-14T02:20:07;10.20;59.30
75819;DHT22;64453;51.944;9.796;2023-12-14T02:22:48;10.60;59.20
75819;DHT22;64453;51.944;9.796;2023-12-14T02:25:16;11.10;58.40
75819;DHT22;64453;51.944;9.796;2023-12-14T02:27:43;10.90;57.80
75819;DHT22;64453;51.944;9.796;2023-12-14T02:30:11;10.80;58.50
75819;DHT22;64453;51.944;9.796;2023-12-14T02:32:38;10.30;56.90
75819;DHT22;64453;51.944;9.796;2023-12-14T02:35:06;10.30;57.80
75819;DHT22;64453;51.944;9.796;2023-12-14T02:37:35;10.70;58.10
75819;DHT22;64453;51.944;9.796;2023-12-14T02:40:04;10.50;57.00
75819;DHT22;64453;51.944;9.796;2023-12-14T02:42:32;10.10;58.40
75819;DHT22;64453;51.944;9.796;2023-12-14T02:44:59;9.70;59.00
75819;DHT22;64453;51.944;9.796;2023-12-14T02:47:27;9.30;59.20
75819;DHT22;64453;51.944;9.796;2023-12-14T02:49:54;9.60;60.20
75819;DHT22;64453;51.944;9.796;2023-12-14T02:52:21;9.70;60.80
75819;DHT22;64453;51.944;9.796;2023-12-14T02:54:49;9.70;61.90
75819;DHT22;64453;51.944;9.796;2023-12-14T02:57:16;10.40;58.40
75819;DHT22;64453;51.944;9.796;2023-12-14T02:59:43;9.20;60.40
75819;DHT22;64453;51.944;9.796;2023-12-14T03:02:10;10.00;59.90
75819;DHT22;64453;51.944;9.796;2023-12-14T03:04:38;10.70;58.20
75819;DHT22;64453;51.944;9.796;2023-12-14T03:07:05;10.50;58.70
75819;DHT22;64453;51.944;9.796;2023-12-14T03:09:32;10.80;57.50
75819;DHT22;64453;51.944;9.796;2023-12-14T03:12:01;11.40;56.70
75819;DHT22;64453;51.944;9.796;2023-12-14T03:14:32;11.10;55.90
75819;DHT22;64453;51.944;9.796;2023-12-14T03:17:00;10.80;56.60
75819;DHT22;64453;51.944;9.796;2023-12-14T03:19:28;10.80;57.10
75819;DHT22;64453;51.944;9.796;2023-12-14T03:21:54;10.90;57.40
75819;DHT22;64453;51.944;9.796;2023-12-14T03:24:21;10.80;58.00
75819;DHT22;64453;51.944;9.796;2023-12-14T03:26:48;11.40;56.30
75819;DHT22;64453;51.944;9.796;2023-12-14T03:29:16;11.20;55.80
75819;DHT22;64453;51.944;9.796;2023-12-14T03:31:43;10.70;56.00
75819;DHT22;64453;51.944;9.796;2023-12-14T03:34:10;10.80;57.80
75819;DHT22;64453;51.944;9.796;2023-12-14T03:36:38;10.40;56.60
75819;DHT22;64453;51.944;9.796;2023-12-14T03:39:04;10.40;57.40
75819;DHT22;64453;51.944;9.796;2023-12-14T03:41:32;10.50;58.20
75819;DHT22;64453;51.944;9.796;2023-12-14T03:43:59;10.90;56.00
75819;DHT22;64453;51.944;9.796;2023-12-14T03:46:27;10.00;57.90
75819;DHT22;64453;51.944;9.796;2023-12-14T03:48:54;10.70;57.10
75819;DHT22;64453;51.944;9.796;2023-12-14T03:51:21;11.40;56.40
75819;DHT22;64453;51.944;9.796;2023-12-14T03:53:48;11.10;56.20
75819;DHT22;64453;51.944;9.796;2023-12-14T03:56:14;9.90;57.50
75819;DHT22;64453;51.944;9.796;2023-12-14T03:58:41;11.00;57.00
75819;DHT22;64453;51.944;9.796;2023-12-14T04:01:14;10.60;55.70
75819;DHT22;64453;51.944;9.796;2023-12-14T04:03:44;10.70;56.60
75819;DHT22;64453;51.944;9.796;2023-12-14T04:06:11;10.10;56.50
75819;DHT22;64453;51.944;9.796;2023-12-14T04:08:38;10.40;56.00
75819;DHT22;64453;51.944;9.796;2023-12-14T04:11:05;11.30;55.70
75819;DHT22;64453;51.944;9.796;2023-12-14T04:13:33;11.60;54.50
75819;DHT22;64453;51.944;9.796;2023-12-14T04:16:00;11.00;54.50
75819;DHT22;64453;51.944;9.796;2023-12-14T04:18:26;11.40;54.20
75819;DHT22;64453;51.944;9.796;2023-12-14T04:20:55;11.10;54.00
75819;DHT22;64453;51.944;9.796;2023-12-14T04:23:21;11.40;54.90
75819;DHT22;64453;51.944;9.796;2023-12-14T04:25:48;11.40;55.20
75819;DHT22;64453;51.944;9.796;2023-12-14T04:28:15;11.50;54.80
75819;DHT22;64453;51.944;9.796;2023-12-14T04:30:42;11.50;54.20
75819;DHT22;64453;51.944;9.796;2023-12-14T04:33:09;11.60;54.40
75819;DHT22;64453;51.944;9.796;2023-12-14T04:35:35;11.70;54.40
75819;DHT22;64453;51.944;9.796;2023-12-14T04:38:04;11.70;54.10
75819;DHT22;64453;51.944;9.796;2023-12-14T04:40:31;11.00;54.50
75819;DHT22;64453;51.944;9.796;2023-12-14T04:42:58;11.40;54.50
75819;DHT22;64453;51.944;9.796;2023-12-14T04:45:25;10.50;55.40
75819;DHT22;64453;51.944;9.796;2023-12-14T04:47:52;10.60;55.90
75819;DHT22;64453;51.944;9.796;2023-12-14T04:50:19;10.70;55.90
75819;DHT22;64453;51.944;9.796;2023-12-14T04:52:46;10.60;56.40
75819;DHT22;64453;51.944;9.796;2023-12-14T04:55:14;10.70;55.70
75819;DHT22;64453;51.944;9.796;2023-12-14T04:57:41;10.60;56.40
75819;DHT22;64453;51.944;9.796;2023-12-14T05:00:09;10.80;55.50
75819;DHT22;64453;51.944;9.796;2023-12-14T05:02:37;10.50;55.50
75819;DHT22;64453;51.944;9.796;2023-12-14T05:05:04;11.00;55.40
75819;DHT22;64453;51.944;9.796;2023-12-14T05:07:31;11.20;54.60
75819;DHT22;64453;51.944;9.796;2023-12-14T05:09:58;10.70;55.80
75819;DHT22;64453;51.944;9.796;2023-12-14T05:12:26;10.00;55.70
75819;DHT22;64453;51.944;9.796;2023-12-14T05:14:52;10.80;56.20
75819;DHT22;64453;51.944;9.796;2023-12-14T05:17:19;9.90;56.10
75819;DHT22;64453;51.944;9.796;2023-12-14T05:19:46;8.90;58.10
75819;DHT22;64453;51.944;9.796;2023-12-14T05:22:13;9.80;58.10
75819;DHT22;64453;51.944;9.796;2023-12-14T05:24:39;10.20;56.10
75819;DHT22;64453;51.944;9.796;2023-12-14T05:27:06;10.60;56.10
75819;DHT22;64453;51.944;9.796;2023-12-14T05:29:34;11.00;55.40
75819;DHT22;64453;51.944;9.796;2023-12-14T05:32:01;10.70;54.70
75819;DHT22;64453;51.944;9.796;2023-12-14T05:34:28;10.80;55.20
75819;DHT22;64453;51.944;9.796;2023-12-14T05:36:55;9.00;56.00
75819;DHT22;64453;51.944;9.796;2023-12-14T05:39:22;9.90;58.70
75819;DHT22;64453;51.944;9.796;2023-12-14T05:41:49;10.20;57.00
75819;DHT22;64453;51.944;9.796;2023-12-14T05:44:16;9.10;58.00
75819;DHT22;64453;51.944;9.796;2023-12-14T05:46:44;9.10;60.00
75819;DHT22;64453;51.944;9.796;2023-12-14T05:49:11;8.70;59.30
75819;DHT22;64453;51.944;9.796;2023-12-14T05:51:37;8.40;62.60
75819;DHT22;64453;51.944;9.796;2023-12-14T05:54:04;8.90;61.10
75819;DHT22;64453;51.944;9.796;2023-12-14T05:56:32;9.90;59.40
75819;DHT22;64453;51.944;9.796;2023-12-14T05:58:59;9.90;57.50
75819;DHT22;64453;51.944;9.796;2023-12-14T06:01:25;10.60;56.90
75819;DHT22;64453;51.944;9.796;2023-12-14T06:03:54;11.10;55.90
75819;DHT22;64453;51.944;9.796;2023-12-14T06:06:20;10.90;56.00
75819;DHT22;64453;51.944;9.796;2023-12-14T06:08:48;9.90;56.70
75819;DHT22;64453;51.944;9.796;2023-12-14T06:11:15;9.90;59.50
75819;DHT22;64453;51.944;9.796;2023-12-14T06:13:42;10.50;57.00
75819;DHT22;64453;51.944;9.796;2023-12-14T06:16:08;10.40;57.30
75819;DHT22;64453;51.944;9.796;2023-12-14T06:18:39;10.40;57.20
75819;DHT22;64453;51.944;9.796;2023-12-14T06:21:08;10.50;57.40
75819;DHT22;64453;51.944;9.796;2023-12-14T06:23:35;10.70;56.70
75819;DHT22;64453;51.944;9.796;2023-12-14T06:26:02;11.10;55.60
75819;DHT22;64453;51.944;9.796;2023-12-14T06:28:30;10.90;54.30
75819;DHT22;64453;51.944;9.796;2023-12-14T06:30:57;10.30;56.90
75819;DHT22;64453;51.944;9.796;2023-12-14T06:33:23;10.70;55.90
75819;DHT22;64453;51.944;9.796;2023-12-14T06:35:50;10.00;57.70
75819;DHT22;64453;51.944;9.796;2023-12-14T06:38:18;9.70;57.80
75819;DHT22;64453;51.944;9.796;2023-12-14T06:40:45;10.40;57.30
75819;DHT22;64453;51.944;9.796;2023-12-14T06:43:12;9.60;58.00
75819;DHT22;64453;51.944;9.796;2023-12-14T06:45:39;10.60;57.10
75819;DHT22;64453;51.944;9.796;2023-12-14T06:48:06;10.30;57.40
75819;DHT22;64453;51.944;9.796;2023-12-14T06:50:32;10.50;56.50
75819;DHT22;64453;51.944;9.796;2023-12-14T06:52:58;10.80;56.80
75819;DHT22;64453;51.944;9.796;2023-12-14T06:55:26;10.50;56.10
75819;DHT22;64453;51.944;9.796;2023-12-14T06:57:53;10.20;56.70
75819;DHT22;64453;51.944;9.796;2023-12-14T07:00:20;10.90;56.20
75819;DHT22;64453;51.944;9.796;2023-12-14T07:02:47;11.40;55.00
75819;DHT22;64453;51.944;9.796;2023-12-14T07:05:14;11.40;55.00
75819;DHT22;64453;51.944;9.796;2023-12-14T07:07:41;11.60;54.50
75819;DHT22;64453;51.944;9.796;2023-12-14T07:10:08;11.20;54.50
75819;DHT22;64453;51.944;9.796;2023-12-14T07:12:36;11.10;54.90
75819;DHT22;64453;51.944;9.796;2023-12-14T07:15:04;11.00;54.90
75819;DHT22;64453;51.944;9.796;2023-12-14T07:17:31;10.80;55.60
75819;DHT22;64453;51.944;9.796;2023-12-14T07:19:58;10.90;54.70
75819;DHT22;64453;51.944;9.796;2023-12-14T07:22:25;11.10;55.10
75819;DHT22;64453;51.944;9.796;2023-12-14T07:24:52;10.90;54.50
75819;DHT22;64453;51.944;9.796;2023-12-14T07:27:18;11.10;55.40
75819;DHT22;64453;51.944;9.796;2023-12-14T07:29:47;11.20;54.50
75819;DHT22;64453;51.944;9.796;2023-12-14T07:32:13;10.20;55.10
75819;DHT22;64453;51.944;9.796;2023-12-14T07:34:40;10.00;57.50
75819;DHT22;64453;51.944;9.796;2023-12-14T07:37:07;10.70;55.50
75819;DHT22;64453;51.944;9.796;2023-12-14T07:39:34;10.70;55.40
75819;DHT22;64453;51.944;9.796;2023-12-14T07:42:01;10.70;55.20
75819;DHT22;64453;51.944;9.796;2023-12-14T07:44:28;10.70;55.00
75819;DHT22;64453;51.944;9.796;2023-12-14T07:46:57;10.90;54.00
75819;DHT22;64453;51.944;9.796;2023-12-14T07:49:26;11.10;53.80
75819;DHT22;64453;51.944;9.796;2023-12-14T07:51:52;11.10;54.10
75819;DHT22;64453;51.944;9.796;2023-12-14T07:54:19;11.10;53.60
75819;DHT22;64453;51.944;9.796;2023-12-14T07:56:46;11.00;53.60
75819;DHT22;64453;51.944;9.796;2023-12-14T07:59:13;10.70;54.10
75819;DHT22;64453;51.944;9.796;2023-12-14T08:01:40;10.60;54.10
75819;DHT22;64453;51.944;9.796;2023-12-14T08:04:09;10.60;54.40
75819;DHT22;64453;51.944;9.796;2023-12-14T08:06:37;10.50;54.80
75819;DHT22;64453;51.944;9.796;2023-12-14T08:09:04;9.80;56.20
75819;DHT22;64453;51.944;9.796;2023-12-14T08:11:32;10.50;55.50
75819;DHT22;64453;51.944;9.796;2023-12-14T08:13:59;10.30;54.80
75819;DHT22;64453;51.944;9.796;2023-12-14T08:16:25;9.50;56.60
75819;DHT22;64453;51.944;9.796;2023-12-14T08:18:52;10.00;56.10
75819;DHT22;64453;51.944;9.796;2023-12-14T08:21:20;9.90;57.30
75819;DHT22;64453;51.944;9.796;2023-12-14T08:23:47;10.50;55.50
75819;DHT22;64453;51.944;9.796;2023-12-14T08:26:14;10.20;54.90
75819;DHT22;64453;51.944;9.796;2023-12-14T08:28:41;10.70;54.30
75819;DHT22;64453;51.944;9.796;2023-12-14T08:31:08;10.60;53.90
75819;DHT22;64453;51.944;9.796;2023-12-14T08:33:37;10.80;54.00
75819;DHT22;64453;51.944;9.796;2023-12-14T08:36:04;10.80;53.70
75819;DHT22;64453;51.944;9.796;2023-12-14T08:38:33;10.40;54.30
75819;DHT22;64453;51.944;9.796;2023-12-14T08:41:00;10.40;54.40
75819;DHT22;64453;51.944;9.796;2023-12-14T08:43:27;10.60;54.20
75819;DHT22;64453;51.944;9.796;2023-12-14T08:45:54;10.70;54.60
75819;DHT22;64453;51.944;9.796;2023-12-14T08:48:21;10.90;53.50
75819;DHT22;64453;51.944;9.796;2023-12-14T08:50:48;10.90;53.10
75819;DHT22;64453;51.944;9.796;2023-12-14T08:53:15;10.70;53.90
75819;DHT22;64453;51.944;9.796;2023-12-14T08:55:43;10.10;54.60
75819;DHT22;64453;51.944;9.796;2023-12-14T08:58:10;10.50;54.40
75819;DHT22;64453;51.944;9.796;2023-12-14T09:00:37;10.80;53.60
75819;DHT22;64453;51.944;9.796;2023-12-14T09:03:04;10.60;54.10
75819;DHT22;64453;51.944;9.796;2023-12-14T09:05:31;10.40;53.50
75819;DHT22;64453;51.944;9.796;2023-12-14T09:07:58;10.90;53.80
75819;DHT22;64453;51.944;9.796;2023-12-14T09:10:25;10.20;53.80
75819;DHT22;64453;51.944;9.796;2023-12-14T09:12:53;10.60;54.70
75819;DHT22;64453;51.944;9.796;2023-12-14T09:15:20;9.60;56.50
75819;DHT22;64453;51.944;9.796;2023-12-14T09:17:46;10.30;55.40
75819;DHT22;64453;51.944;9.796;2023-12-14T09:20:13;10.00;54.20
75819;DHT22;64453;51.944;9.796;2023-12-14T09:22:40;10.40;54.80
75819;DHT22;64453;51.944;9.796;2023-12-14T09:25:08;10.50;55.20
75819;DHT22;64453;51.944;9.796;2023-12-14T09:27:35;10.40;55.10
75819;DHT22;64453;51.944;9.796;2023-12-14T09:30:04;10.60;55.70
75819;DHT22;64453;51.944;9.796;2023-12-14T09:32:33;10.20;55.00
75819;DHT22;64453;51.944;9.796;2023-12-14T09:35:00;10.20;56.20
75819;DHT22;64453;51.944;9.796;2023-12-14T09:37:26;10.90;55.20
75819;DHT22;64453;51.944;9.796;2023-12-14T09:39:53;10.90;54.60
75819;DHT22;64453;51.944;9.796;2023-12-14T09:42:20;10.40;54.40
75819;DHT22;64453;51.944;9.796;2023-12-14T09:44:48;10.80;55.00
75819;DHT22;64453;51.944;9.796;2023-12-14T09:47:16;10.60;54.60
75819;DHT22;64453;51.944;9.796;2023-12-14T09:49:45;10.70;55.00
75819;DHT22;64453;51.944;9.796;2023-12-14T09:52:12;10.20;55.70
75819;DHT22;64453;51.944;9.796;2023-12-14T09:54:39;10.70;55.40
75819;DHT22;64453;51.944;9.796;2023-12-14T09:57:06;10.40;54.30
75819;DHT22;64453;51.944;9.796;2023-12-14T09:59:33;10.30;54.40
75819;DHT22;64453;51.944;9.796;2023-12-14T10:02:09;10.10;53.80
75819;DHT22;64453;51.944;9.796;2023-12-14T10:04:38;10.70;54.70
75819;DHT22;64453;51.944;9.796;2023-12-14T10:07:05;9.90;57.50
75819;DHT22;64453;51.944;9.796;2023-12-14T10:09:33;10.30;55.60
75819;DHT22;64453;51.944;9.796;2023-12-14T10:12:05;10.80;54.80
75819;DHT22;64453;51.944;9.796;2023-12-14T10:14:33;11.00;54.50
75819;DHT22;64453;51.944;9.796;2023-12-14T10:17:14;11.00;54.10
75819;DHT22;64453;51.944;9.796;2023-12-14T10:19:44;11.00;53.10
75819;DHT22;64453;51.944;9.796;2023-12-14T10:22:13;10.70;54.60
75819;DHT22;64453;51.944;9.796;2023-12-14T10:24:43;10.60;54.20
75819;DHT22;64453;51.944;9.796;2023-12-14T10:27:11;10.10;55.90
75819;DHT22;64453;51.944;9.796;2023-12-14T10:29:37;9.70;57.20
75819;DHT22;64453;51.944;9.796;2023-12-14T10:32:06;10.10;55.80
75819;DHT22;64453;51.944;9.796;2023-12-14T10:34:34;9.30;58.10
75819;DHT22;64453;51.944;9.796;2023-12-14T10:37:05;9.50;57.00
75819;DHT22;64453;51.944;9.796;2023-12-14T10:39:33;10.10;56.50
75819;DHT22;64453;51.944;9.796;2023-12-14T10:42:02;9.00;59.30
75819;DHT22;64453;51.944;9.796;2023-12-14T10:44:30;9.20;59.10
75819;DHT22;64453;51.944;9.796;2023-12-14T10:47:03;9.20;59.00
75819;DHT22;64453;51.944;9.796;2023-12-14T10:49:31;9.60;58.70
75819;DHT22;64453;51.944;9.796;2023-12-14T10:52:00;9.40;57.30
75819;DHT22;64453;51.944;9.796;2023-12-14T10:54:31;10.10;57.20
75819;DHT22;64453;51.944;9.796;2023-12-14T10:56:59;10.70;55.80
75819;DHT22;64453;51.944;9.796;2023-12-14T10:59:26;10.80;54.90
75819;DHT22;64453;51.944;9.796;2023-12-14T11:01:54;10.70;54.20
75819;DHT22;64453;51.944;9.796;2023-12-14T11:04:21;11.20;54.60
75819;DHT22;64453;51.944;9.796;2023-12-14T11:06:48;11.40;54.40
75819;DHT22;64453;51.944;9.796;2023-12-14T11:09:18;10.80;53.20
75819;DHT22;64453;51.944;9.796;2023-12-14T11:11:55;11.00;54.20
75819;DHT22;64453;51.944;9.796;2023-12-14T11:14:26;9.60;54.00
75819;DHT22;64453;51.944;9.796;2023-12-14T11:16:55;9.20;57.40
75819;DHT22;64453;51.944;9.796;2023-12-14T11:19:30;10.30;56.10
75819;DHT22;64453;51.944;9.796;2023-12-14T11:22:13;10.80;54.50
75819;DHT22;64453;51.944;9.796;2023-12-14T11:24:54;10.50;53.50
75819;DHT22;64453;51.944;9.796;2023-12-14T11:27:29;10.40;54.70
75819;DHT22;64453;51.944;9.796;2023-12-14T11:29:56;10.90;54.50
75819;DHT22;64453;51.944;9.796;2023-12-14T11:32:25;10.40;54.20
75819;DHT22;64453;51.944;9.796;2023-12-14T11:34:52;11.00;53.80
75819;DHT22;64453;51.944;9.796;2023-12-14T11:37:19;11.20;53.30
75819;DHT22;64453;51.944;9.796;2023-12-14T11:39:50;10.90;53.90
75819;DHT22;64453;51.944;9.796;2023-12-14T11:42:20;11.00;53.80
75819;DHT22;64453;51.944;9.796;2023-12-14T11:44:47;10.80;53.60
75819;DHT22;64453;51.944;9.796;2023-12-14T11:47:14;10.50;54.70
75819;DHT22;64453;51.944;9.796;2023-12-14T11:49:41;9.70;56.70
75819;DHT22;64453;51.944;9.796;2023-12-14T11:52:08;9.90;56.40
75819;DHT22;64453;51.944;9.796;2023-12-14T11:54:37;10.10;55.10
75819;DHT22;64453;51.944;9.796;2023-12-14T11:57:04;9.90;56.80
75819;DHT22;64453;51.944;9.796;2023-12-14T11:59:35;9.90;57.00
75819;DHT22;64453;51.944;9.796;2023-12-14T12:02:03;9.80;56.70
75819;DHT22;64453;51.944;9.796;2023-12-14T12:04:30;9.80;55.60
75819;DHT22;64453;51.944;9.796;2023-12-14T12:07:01;8.90;57.80
75819;DHT22;64453;51.944;9.796;2023-12-14T12:09:34;9.00;59.40
75819;DHT22;64453;51.944;9.796;2023-12-14T12:12:08;9.40;58.30
75819;DHT22;64453;51.944;9.796;2023-12-14T12:14:38;9.80;57.50
75819;DHT22;64453;51.944;9.796;2023-12-14T12:17:06;10.30;55.50
75819;DHT22;64453;51.944;9.796;2023-12-14T12:19:34;10.50;54.70
75819;DHT22;64453;51.944;9.796;2023-12-14T12:22:03;10.60;54.20
75819;DHT22;64453;51.944;9.796;2023-12-14T12:24:30;10.20;55.10
75819;DHT22;64453;51.944;9.796;2023-12-14T12:26:58;10.30;55.30
75819;DHT22;64453;51.944;9.796;2023-12-14T12:29:27;9.90;55.50
75819;DHT22;64453;51.944;9.796;2023-12-14T12:31:55;10.00;54.90
75819;DHT22;64453;51.944;9.796;2023-12-14T12:34:22;10.00;55.00
75819;DHT22;64453;51.944;9.796;2023-12-14T12:36:49;10.30;55.50
75819;DHT22;64453;51.944;9.796;2023-12-14T12:39:16;10.00;54.40
75819;DHT22;64453;51.944;9.796;2023-12-14T12:41:43;9.60;56.20
75819;DHT22;64453;51.944;9.796;2023-12-14T12:44:10;10.20;55.50
75819;DHT22;64453;51.944;9.796;2023-12-14T12:46:37;10.70;54.20
75819;DHT22;64453;51.944;9.796;2023-12-14T12:49:05;9.60;55.70
75819;DHT22;64453;51.944;9.796;2023-12-14T12:51:32;10.00;54.50
75819;DHT22;64453;51.944;9.796;2023-12-14T12:54:01;10.20;54.40
75819;DHT22;64453;51.944;9.796;2023-12-14T12:56:29;9.70;54.90
75819;DHT22;64453;51.944;9.796;2023-12-14T12:58:56;10.00;54.30
75819;DHT22;64453;51.944;9.796;2023-12-14T13:01:23;9.50;55.20
75819;DHT22;64453;51.944;9.796;2023-12-14T13:03:53;10.00;54.80
75819;DHT22;64453;51.944;9.796;2023-12-14T13:06:23;9.80;54.10
75819;DHT22;64453;51.944;9.796;2023-12-14T13:08:51;9.80;55.10
75819;DHT22;64453;51.944;9.796;2023-12-14T13:11:18;10.00;55.00
75819;DHT22;64453;51.944;9.796;2023-12-14T13:13:45;10.30;54.50
75819;DHT22;64453;51.944;9.796;2023-12-14T13:16:12;9.70;54.90
75819;DHT22;64453;51.944;9.796;2023-12-14T13:18:39;9.50;55.70
75819;DHT22;64453;51.944;9.796;2023-12-14T13:21:06;9.90;55.80
75819;DHT22;64453;51.944;9.796;2023-12-14T13:23:35;9.50;56.10
75819;DHT22;64453;51.944;9.796;2023-12-14T13:26:02;9.30;57.00
75819;DHT22;64453;51.944;9.796;2023-12-14T13:28:29;9.30;56.30
75819;DHT22;64453;51.944;9.796;2023-12-14T13:30:57;9.30;56.60
75819;DHT22;64453;51.944;9.796;2023-12-14T13:33:24;9.60;56.10
75819;DHT22;64453;51.944;9.796;2023-12-14T13:35:52;9.20;56.70
75819;DHT22;64453;51.944;9.796;2023-12-14T13:38:19;9.50;57.00
75819;DHT22;64453;51.944;9.796;2023-12-14T13:40:47;10.10;55.40
75819;DHT22;64453;51.944;9.796;2023-12-14T13:43:14;9.30;55.80
75819;DHT22;64453;51.944;9.796;2023-12-14T13:45:41;8.80;57.20
75819;DHT22;64453;51.944;9.796;2023-12-14T13:48:08;9.70;57.50
75819;DHT22;64453;51.944;9.796;2023-12-14T13:50:35;10.00;56.00
75819;DHT22;64453;51.944;9.796;2023-12-14T13:53:02;9.30;55.80
75819;DHT22;64453;51.944;9.796;2023-12-14T13:55:30;9.50;57.60
75819;DHT22;64453;51.944;9.796;2023-12-14T13:57:58;9.40;56.60
75819;DHT22;64453;51.944;9.796;2023-12-14T14:00:26;9.40;57.70
75819;DHT22;64453;51.944;9.796;2023-12-14T14:02:53;9.10;57.20
75819;DHT22;64453;51.944;9.796;2023-12-14T14:05:20;9.40;58.10
75819;DHT22;64453;51.944;9.796;2023-12-14T14:07:47;9.80;57.60
75819;DHT22;64453;51.944;9.796;2023-12-14T14:10:14;10.40;56.10
75819;DHT22;64453;51.944;9.796;2023-12-14T14:12:41;10.10;55.70
75819;DHT22;64453;51.944;9.796;2023-12-14T14:15:09;10.50;55.20
75819;DHT22;64453;51.944;9.796;2023-12-14T14:17:37;10.60;55.00
75819;DHT22;64453;51.944;9.796;2023-12-14T14:20:06;10.50;54.50
75819;DHT22;64453;51.944;9.796;2023-12-14T14:22:35;9.40;55.30
75819;DHT22;64453;51.944;9.796;2023-12-14T14:25:04;10.10;55.70
75819;DHT22;64453;51.944;9.796;2023-12-14T14:27:31;10.20;55.30
75819;DHT22;64453;51.944;9.796;2023-12-14T14:29:59;10.10;54.50
75819;DHT22;64453;51.944;9.796;2023-12-14T14:32:27;10.40;54.60
75819;DHT22;64453;51.944;9.796;2023-12-14T14:34:56;10.90;54.30
75819;DHT22;64453;51.944;9.796;2023-12-14T14:37:24;10.30;54.30
75819;DHT22;64453;51.944;9.796;2023-12-14T14:39:51;10.50;54.90
75819;DHT22;64453;51.944;9.796;2023-12-14T14:42:18;10.60;54.60
75819;DHT22;64453;51.944;9.796;2023-12-14T14:44:45;10.50;54.40
75819;DHT22;64453;51.944;9.796;2023-12-14T14:47:12;10.70;55.00
75819;DHT22;64453;51.944;9.796;2023-12-14T14:49:41;10.70;54.60
75819;DHT22;64453;51.944;9.796;2023-12-14T14:52:07;10.90;54.60
75819;DHT22;64453;51.944;9.796;2023-12-14T14:54:34;11.00;54.10
75819;DHT22;64453;51.944;9.796;2023-12-14T14:57:01;11.10;54.00
75819;DHT22;64453;51.944;9.796;2023-12-14T14:59:30;11.00;53.90
75819;DHT22;64453;51.944;9.796;2023-12-14T15:01:57;10.90;53.30
75819;DHT22;64453;51.944;9.796;2023-12-14T15:04:25;11.00;53.70
75819;DHT22;64453;51.944;9.796;2023-12-14T15:06:53;11.00;53.50
75819;DHT22;64453;51.944;9.796;2023-12-14T15:09:21;11.20;54.10
75819;DHT22;64453;51.944;9.796;2023-12-14T15:11:48;11.30;53.10
75819;DHT22;64453;51.944;9.796;2023-12-14T15:14:15;10.90;53.00
75819;DHT22;64453;51.944;9.796;2023-12-14T15:16:42;10.80;54.00
75819;DHT22;64453;51.944;9.796;2023-12-14T15:19:09;11.00;53.30
75819;DHT22;64453;51.944;9.796;2023-12-14T15:21:37;11.20;53.10
75819;DHT22;64453;51.944;9.796;2023-12-14T15:24:06;9.80;54.40
75819;DHT22;64453;51.944;9.796;2023-12-14T15:26:33;10.10;55.00
75819;DHT22;64453;51.944;9.796;2023-12-14T15:29:00;10.20;55.50
75819;DHT22;64453;51.944;9.796;2023-12-14T15:31:27;10.50;54.80
75819;DHT22;64453;51.944;9.796;2023-12-14T15:33:54;10.20;55.20
75819;DHT22;64453;51.944;9.796;2023-12-14T15:36:22;10.30;54.90